Time;durP1;ratioP1;P1;durP2;ratioP2;P2;SDS_P1;SDS_P2;PMS_P1;PMS_P2;Temp;Humidity;BMP_temperature;BMP_pressure;BME280_temperature;BME280_humidity;BME280_pressure;Samples;Min_cycle;Max_cycle;Signal;HPM_P1;HPM_P2
2023/10/16 00:00:29;;;;;;;5.30;1.10;;;19.50;69.00;;;;;;6278915;22;20015;-63
2023/10/16 00:03:02;;;;;;;3.50;0.90;;;19.50;69.10;;;;;;6256971;22;20100;-62
2023/10/16 00:05:38;;;;;;;4.22;1.27;;;19.40;69.00;;;;;;6277886;22;20023;-63
2023/10/16 00:08:05;;;;;;;2.95;0.90;;;19.40;69.00;;;;;;6279699;22;20054;-63
2023/10/16 00:10:33;;;;;;;3.28;0.80;;;19.40;69.00;;;;;;6306802;22;20030;-62
2023/10/16 00:13:04;;;;;;;4.15;0.80;;;19.40;69.00;;;;;;6306062;22;20075;-64
2023/10/16 00:15:40;;;;;;;2.72;0.90;;;19.40;69.00;;;;;;6279145;22;20094;-64
2023/10/16 00:18:13;;;;;;;2.63;0.70;;;19.40;69.00;;;;;;6306062;22;20499;-64
2023/10/16 00:20:41;;;;;;;2.30;0.65;;;19.40;69.00;;;;;;6307341;22;20068;-64
2023/10/16 00:23:10;;;;;;;2.83;0.75;;;19.40;68.90;;;;;;6307097;22;20019;-64
2023/10/16 00:25:38;;;;;;;3.53;0.80;;;19.40;68.90;;;;;;6306423;22;20439;-64
2023/10/16 00:28:05;;;;;;;3.60;1.10;;;19.30;68.80;;;;;;6279036;22;20015;-64
2023/10/16 00:30:31;;;;;;;2.17;0.57;;;19.30;68.80;;;;;;6306239;22;20494;-64
2023/10/16 00:32:58;;;;;;;2.15;0.80;;;19.30;68.80;;;;;;6306139;22;20047;-64
2023/10/16 00:35:24;;;;;;;3.28;0.80;;;19.40;68.90;;;;;;6279301;22;20047;-64
2023/10/16 00:37:50;;;;;;;3.25;0.90;;;19.40;68.90;;;;;;6306842;22;20065;-64
2023/10/16 00:40:29;;;;;;;5.97;0.80;;;19.30;68.80;;;;;;6278142;22;20011;-64
2023/10/16 00:42:55;;;;;;;2.92;0.65;;;19.30;68.80;;;;;;6279318;22;20087;-65
2023/10/16 00:45:21;;;;;;;3.17;0.82;;;19.30;69.50;;;;;;6278636;22;20039;-64
2023/10/16 00:47:47;;;;;;;2.42;0.82;;;19.30;68.80;;;;;;6278841;22;20023;-64
2023/10/16 00:50:14;;;;;;;2.25;0.85;;;19.30;68.80;;;;;;6279005;22;20015;-64
2023/10/16 00:52:42;;;;;;;2.63;0.75;;;19.30;68.90;;;;;;6306653;22;20030;-63
2023/10/16 00:55:11;;;;;;;;;;;19.30;68.80;;;;;;6253966;22;20069;-64
2023/10/16 00:57:39;;;;;;;2.90;0.77;;;19.30;68.80;;;;;;6254242;22;19915;-64
2023/10/16 01:00:12;;;;;;;;;;;19.30;68.80;;;;;;6253222;22;20443;-63
2023/10/16 01:02:40;;;;;;;3.42;0.60;;;19.20;68.80;;;;;;6257086;22;19938;-64
2023/10/16 01:05:07;;;;;;;2.75;0.70;;;19.20;68.80;;;;;;6281469;22;20015;-64
2023/10/16 01:07:36;;;;;;;2.80;0.73;;;19.20;68.80;;;;;;6229886;22;20078;-64
2023/10/16 01:10:02;;;;;;;;;;;19.20;68.80;;;;;;6281749;22;20116;-64
2023/10/16 01:12:27;;;;;;;2.80;0.77;;;19.20;68.80;;;;;;6308019;22;20381;-63
2023/10/16 01:14:54;;;;;;;2.38;0.60;;;19.20;68.80;;;;;;6280176;22;20043;-64
2023/10/16 01:17:29;;;;;;;2.60;0.50;;;19.20;68.90;;;;;;6280916;22;20019;-64
2023/10/16 01:19:56;;;;;;;1.88;0.65;;;19.20;68.90;;;;;;6307877;22;20443;-64
2023/10/16 01:22:22;;;;;;;1.33;0.52;;;19.20;68.90;;;;;;6279580;22;20094;-64
2023/10/16 01:24:48;;;;;;;2.17;0.68;;;19.20;68.90;;;;;;6280846;22;20027;-64
2023/10/16 01:27:29;;;;;;;3.22;0.70;;;19.20;68.90;;;;;;6280662;22;20026;-64
2023/10/16 01:29:57;;;;;;;2.50;0.60;;;19.20;68.90;;;;;;6307527;22;20020;-64
2023/10/16 01:32:22;;;;;;;1.63;0.70;;;19.20;68.90;;;;;;6281042;22;20101;-64
2023/10/16 01:34:50;;;;;;;2.75;0.70;;;19.20;68.90;;;;;;6281210;22;20725;-64
2023/10/16 01:37:18;;;;;;;2.75;0.60;;;19.20;69.00;;;;;;6306867;22;20327;-64
2023/10/16 01:39:53;;;;;;;2.95;0.70;;;19.20;69.00;;;;;;6256088;22;20015;-64
2023/10/16 01:42:19;;;;;;;2.40;0.65;;;19.20;68.90;;;;;;6279835;22;20470;-64
2023/10/16 01:44:45;;;;;;;1.20;0.50;;;19.20;68.90;;;;;;6308984;22;20020;-64
2023/10/16 01:47:15;;;;;;;1.90;0.50;;;19.20;68.90;;;;;;6280285;22;20020;-64
2023/10/16 01:49:42;;;;;;;3.45;0.60;;;19.20;68.90;;;;;;6307500;22;20026;-64
2023/10/16 01:52:11;;;;;;;1.83;0.50;;;19.20;68.90;;;;;;6308233;22;20074;-64
2023/10/16 01:54:38;;;;;;;3.25;0.60;;;19.10;68.80;;;;;;6308136;22;20343;-64
2023/10/16 01:57:10;;;;;;;2.65;0.52;;;19.20;68.90;;;;;;6280029;22;20347;-64
2023/10/16 01:59:40;;;;;;;1.63;0.45;;;19.10;68.90;;;;;;6280695;22;20019;-64
2023/10/16 02:02:05;;;;;;;2.05;0.70;;;19.10;68.80;;;;;;6306743;22;20047;-64
2023/10/16 02:04:31;;;;;;;1.80;0.50;;;19.10;68.80;;;;;;6278378;22;20082;-64
2023/10/16 02:06:56;;;;;;;1.40;0.50;;;19.10;68.90;;;;;;6306683;22;20157;-64
2023/10/16 02:09:25;;;;;;;1.15;0.40;;;19.10;68.90;;;;;;6307057;22;20026;-63
2023/10/16 02:11:51;;;;;;;1.58;0.50;;;19.10;68.90;;;;;;6279613;22;20029;-64
2023/10/16 02:14:16;;;;;;;2.53;0.60;;;19.10;68.90;;;;;;6280343;22;20093;-64
2023/10/16 02:16:42;;;;;;;2.47;0.73;;;19.10;68.90;;;;;;6280484;22;20016;-64
2023/10/16 02:19:07;;;;;;;1.92;0.50;;;19.10;68.80;;;;;;6306729;22;20339;-64
2023/10/16 02:21:33;;;;;;;1.92;0.80;;;19.10;68.90;;;;;;6280682;22;20011;-64
2023/10/16 02:24:03;;;;;;;1.77;0.50;;;19.10;68.90;;;;;;6280566;22;20023;-64
2023/10/16 02:26:30;;;;;;;1.58;0.50;;;19.10;68.90;;;;;;6306446;22;20027;-64
2023/10/16 02:29:00;;;;;;;2.13;0.57;;;19.10;68.80;;;;;;6280161;22;20023;-64
2023/10/16 02:31:25;;;;;;;2.22;0.60;;;19.10;68.70;;;;;;6278342;22;20094;-64
2023/10/16 02:33:54;;;;;;;1.10;0.43;;;19.10;68.80;;;;;;6280596;22;20039;-64
2023/10/16 02:36:21;;;;;;;1.45;0.63;;;19.10;68.70;;;;;;6307838;22;20011;-64
2023/10/16 02:38:50;;;;;;;1.73;0.50;;;19.10;68.70;;;;;;6278961;22;20026;-64
2023/10/16 02:41:19;;;;;;;1.05;0.40;;;19.20;68.70;;;;;;6307508;22;20026;-64
2023/10/16 02:43:46;;;;;;;2.97;0.55;;;19.20;68.70;;;;;;6280261;22;20019;-64
2023/10/16 02:46:12;;;;;;;1.40;0.40;;;19.20;68.70;;;;;;6306176;22;20451;-64
2023/10/16 02:48:41;;;;;;;1.83;0.60;;;19.20;68.70;;;;;;6280339;22;20025;-64
2023/10/16 02:51:07;;;;;;;1.92;0.50;;;19.10;68.60;;;;;;6280290;22;20061;-64
2023/10/16 02:53:34;;;;;;;1.45;0.60;;;19.20;68.60;;;;;;6279286;22;20429;-64
2023/10/16 02:56:05;;;;;;;1.08;0.40;;;19.20;68.60;;;;;;6280244;22;20021;-64
2023/10/16 02:58:31;;;;;;;1.13;0.50;;;19.20;68.50;;;;;;6279585;22;20030;-64
2023/10/16 03:00:59;;;;;;;1.20;0.40;;;19.20;68.50;;;;;;6273772;22;20340;-65
2023/10/16 03:03:26;;;;;;;1.80;0.57;;;19.20;68.50;;;;;;6274851;22;20024;-64
2023/10/16 03:05:55;;;;;;;2.20;0.77;;;19.30;68.50;;;;;;6275040;22;20066;-64
2023/10/16 03:08:22;;;;;;;1.00;0.43;;;19.30;68.40;;;;;;6273595;22;20058;-64
2023/10/16 03:10:48;;;;;;;1.48;0.40;;;19.30;68.40;;;;;;6274877;22;20398;-64
2023/10/16 03:13:15;;;;;;;2.60;0.40;;;19.30;68.40;;;;;;6274592;22;20062;-64
2023/10/16 03:15:47;;;;;;;1.20;0.40;;;19.40;68.40;;;;;;6273872;22;20016;-65
2023/10/16 03:18:22;;;;;;;1.98;0.50;;;19.30;68.40;;;;;;6276049;22;20446;-64
2023/10/16 03:20:48;;;;;;;1.48;0.55;;;19.40;68.40;;;;;;6275853;22;20066;-64
2023/10/16 03:23:18;;;;;;;1.75;0.40;;;19.40;68.40;;;;;;6274053;22;20012;-64
2023/10/16 03:28:11;;;;;;;1.33;0.40;;;19.40;68.40;;;;;;6273550;22;20364;-64
2023/10/16 03:30:39;;;;;;;1.90;0.50;;;19.50;68.50;;;;;;6274588;22;20018;-64
2023/10/16 03:33:05;;;;;;;1.75;0.30;;;19.50;68.50;;;;;;6274551;22;20019;-64
2023/10/16 03:35:31;;;;;;;1.10;0.45;;;19.50;68.40;;;;;;6275384;22;20069;-64
2023/10/16 03:38:01;;;;;;;1.02;0.35;;;19.50;68.40;;;;;;6274536;22;20106;-64
2023/10/16 03:40:27;;;;;;;1.67;0.47;;;19.50;68.40;;;;;;6274672;22;20432;-64
2023/10/16 03:42:56;;;;;;;1.48;0.47;;;19.50;68.40;;;;;;6275636;22;20049;-64
2023/10/16 03:45:22;;;;;;;1.05;0.40;;;19.60;68.40;;;;;;6273718;22;20065;-64
2023/10/16 03:47:54;;;;;;;1.52;0.43;;;19.60;68.40;;;;;;6276163;22;20051;-64
2023/10/16 03:50:24;;;;;;;1.02;0.30;;;19.60;68.40;;;;;;6273111;22;20019;-64
2023/10/16 03:52:50;;;;;;;1.17;0.30;;;19.60;68.40;;;;;;6276536;22;20452;-64
2023/10/16 03:55:25;;;;;;;0.63;0.28;;;19.60;68.40;;;;;;6274330;22;20012;-64
2023/10/16 03:57:56;;;;;;;1.17;0.40;;;19.60;68.40;;;;;;6275314;22;20027;-64
2023/10/16 04:00:50;;;;;;;2.25;0.50;;;19.70;68.40;;;;;;6274448;22;20091;-65
2023/10/16 04:03:17;;;;;;;1.40;0.45;;;19.70;68.40;;;;;;6277739;22;20047;-64
2023/10/16 04:05:45;;;;;;;2.20;0.40;;;19.70;68.40;;;;;;6279451;22;20015;-64
2023/10/16 04:08:14;;;;;;;;;;;19.70;68.40;;;;;;6306715;22;20019;-64
2023/10/16 04:10:53;;;;;;;1.70;0.50;;;19.70;68.50;;;;;;6305957;22;19938;-64
2023/10/16 04:13:19;;;;;;;0.73;0.32;;;19.70;68.40;;;;;;6279185;22;20335;-64
2023/10/16 04:21:08;;;;;;;1.75;0.40;;;19.70;68.40;;;;;;6306922;22;20027;-65
2023/10/16 04:23:52;;;;;;;1.27;0.40;;;19.70;68.30;;;;;;6306932;22;20026;-64
2023/10/16 04:34:25;;;;;;;1.13;0.30;;;19.80;68.30;;;;;;6279705;22;20031;-64
2023/10/16 04:36:54;;;;;;;1.25;0.47;;;19.80;68.30;;;;;;6281753;22;20462;-64
2023/10/16 04:45:24;;;;;;;0.90;0.38;;;19.80;68.30;;;;;;6308910;22;20090;-64
2023/10/16 04:50:29;;;;;;;1.45;0.40;;;19.80;68.40;;;;;;6281092;22;20019;-64
2023/10/16 05:11:32;;;;;;;2.83;0.50;;;19.90;68.40;;;;;;6280878;22;20028;-64
2023/10/16 06:14:14;;;;;;;1.33;0.38;;;20.10;68.50;;;;;;6280675;22;20023;-64
2023/10/16 06:16:53;;;;;;;0.98;0.30;;;20.00;68.40;;;;;;6279682;22;20019;-64
2023/10/16 06:19:19;;;;;;;1.10;0.40;;;20.10;68.50;;;;;;6307887;22;20499;-64
2023/10/16 06:21:51;;;;;;;0.85;0.32;;;20.10;68.50;;;;;;6280510;22;20050;-64
2023/10/16 06:24:33;;;;;;;1.70;0.20;;;20.10;68.50;;;;;;6278716;22;20023;-63
2023/10/16 06:26:59;;;;;;;1.83;0.30;;;20.10;68.50;;;;;;6280346;22;20442;-62
2023/10/16 06:29:34;;;;;;;1.58;0.40;;;20.10;68.50;;;;;;6279607;22;20347;-62
2023/10/16 06:32:06;;;;;;;1.67;0.43;;;20.10;68.50;;;;;;6279570;22;20046;-63
2023/10/16 06:34:33;;;;;;;1.65;0.50;;;20.10;68.50;;;;;;6307669;22;20057;-62
2023/10/16 06:37:05;;;;;;;2.40;0.52;;;20.10;68.40;;;;;;6280402;22;20011;-63
2023/10/16 06:39:35;;;;;;;1.33;0.30;;;20.10;68.30;;;;;;6279362;22;20154;-62
2023/10/16 06:42:02;;;;;;;2.22;0.47;;;20.20;68.30;;;;;;6307723;22;20047;-63
2023/10/16 06:44:28;;;;;;;3.42;0.52;;;20.10;68.30;;;;;;6279621;22;20447;-62
2023/10/16 06:46:58;;;;;;;3.22;0.60;;;20.20;68.40;;;;;;6279678;22;20027;-62
2023/10/16 06:49:27;;;;;;;2.22;0.40;;;20.20;68.40;;;;;;6280103;22;20022;-63
2023/10/16 06:51:56;;;;;;;2.40;0.63;;;20.20;68.50;;;;;;6279284;22;20027;-63
2023/10/16 06:54:25;;;;;;;0.88;0.28;;;20.20;68.50;;;;;;6279599;22;20042;-62
2023/10/16 06:56:51;;;;;;;1.45;0.40;;;20.20;68.50;;;;;;6279516;22;20029;-63
2023/10/16 06:59:17;;;;;;;1.77;0.38;;;20.20;68.50;;;;;;6277919;22;20047;-62
2023/10/16 07:01:46;;;;;;;1.67;0.50;;;20.20;68.60;;;;;;6279969;22;20053;-62
2023/10/16 07:04:15;;;;;;;2.47;0.40;;;20.20;68.60;;;;;;6279642;22;20019;-62
2023/10/16 07:06:44;;;;;;;2.97;0.63;;;20.20;68.60;;;;;;6279299;22;20030;-63
2023/10/16 07:09:09;;;;;;;;;;;20.20;68.70;;;;;;6280390;22;20022;-66
2023/10/16 07:11:35;;;;;;;3.40;0.57;;;20.20;68.80;;;;;;6280069;22;19915;-63
2023/10/16 07:14:02;;;;;;;2.45;0.60;;;20.20;68.80;;;;;;6279221;22;20348;-67
2023/10/16 07:16:28;;;;;;;7.70;0.50;;;20.20;68.90;;;;;;6254146;22;20064;-65
2023/10/16 07:18:55;;;;;;;2.35;0.50;;;20.30;69.00;;;;;;6279949;22;20027;-66
2023/10/16 07:21:21;;;;;;;3.75;0.70;;;20.30;69.10;;;;;;6278763;22;20473;-65
2023/10/16 07:23:46;;;;;;;2.25;0.88;;;20.30;69.20;;;;;;6307327;22;20019;-66
2023/10/16 07:26:24;;;;;;;3.25;0.55;;;20.30;69.20;;;;;;6307017;22;20023;-65
2023/10/16 07:28:50;;;;;;;2.67;0.43;;;20.30;69.30;;;;;;6278792;22;20023;-65
2023/10/16 07:31:16;;;;;;;3.75;0.60;;;20.30;69.30;;;;;;6279376;22;20450;-64
2023/10/16 07:33:43;;;;;;;2.33;0.60;;;20.30;69.30;;;;;;6307207;22;20047;-64
2023/10/16 07:36:11;;;;;;;4.57;0.60;;;20.30;69.30;;;;;;6306273;22;20007;-64
2023/10/16 07:38:41;;;;;;;1.55;0.60;;;20.40;69.40;;;;;;6307168;22;20011;-64
2023/10/16 07:41:11;;;;;;;2.67;0.70;;;20.40;69.40;;;;;;6278840;22;20026;-65
2023/10/16 07:43:37;;;;;;;4.75;0.80;;;20.40;69.40;;;;;;6279787;22;20023;-65
2023/10/16 07:48:40;;;;;;;3.17;0.70;;;20.30;69.40;;;;;;6306510;22;20023;-62
2023/10/16 07:51:09;;;;;;;2.92;0.70;;;20.30;69.40;;;;;;6304053;22;20082;-65
2023/10/16 07:53:38;;;;;;;1.58;0.68;;;20.30;69.50;;;;;;6279429;22;20023;-64
2023/10/16 07:56:19;;;;;;;2.85;0.63;;;20.40;69.50;;;;;;6278412;22;20015;-64
2023/10/16 07:59:09;;;;;;;4.57;0.70;;;20.30;69.50;;;;;;6279734;22;20343;-63
2023/10/16 08:01:42;;;;;;;3.25;0.90;;;20.40;69.50;;;;;;6306152;22;20008;-63
2023/10/16 08:04:27;;;;;;;1.88;0.60;;;20.30;69.50;;;;;;6306244;22;20055;-64
2023/10/16 08:06:57;;;;;;;4.55;0.70;;;20.40;69.60;;;;;;6279473;22;20023;-64
2023/10/16 08:11:57;;;;;;;3.00;0.80;;;20.30;69.60;;;;;;6278137;22;20024;-64
2023/10/16 08:14:24;;;;;;;4.95;0.77;;;20.40;69.60;;;;;;6279239;22;20431;-71
2023/10/16 08:16:58;;;;;;;4.00;0.73;;;20.30;69.50;;;;;;6251645;22;20018;-63
2023/10/16 08:19:31;;;;;;;4.40;0.60;;;20.40;69.60;;;;;;6279412;22;20045;-63
2023/10/16 08:21:57;;;;;;;3.97;1.10;;;20.40;69.60;;;;;;6307263;22;20015;-63
2023/10/16 08:24:24;;;;;;;2.70;0.70;;;20.40;69.50;;;;;;6305430;22;20316;-62
2023/10/16 08:26:51;;;;;;;6.40;1.13;;;20.40;69.50;;;;;;6279433;22;20086;-64
2023/10/16 08:34:34;;;;;;;1.98;0.80;;;20.50;69.60;;;;;;6306317;22;20088;-63
2023/10/16 08:37:03;;;;;;;1.80;0.68;;;20.50;69.60;;;;;;6278785;22;20047;-63
2023/10/16 08:39:29;;;;;;;3.13;0.85;;;20.50;69.60;;;;;;6279046;22;20094;-63
2023/10/16 08:42:18;;;;;;;4.88;0.82;;;20.50;69.60;;;;;;6279332;22;20092;-64
2023/10/16 08:47:32;;;;;;;2.22;0.80;;;20.50;69.70;;;;;;6278798;22;20023;-61
2023/10/16 08:49:58;;;;;;;4.32;0.70;;;20.50;69.70;;;;;;6278547;22;20094;-63
2023/10/16 08:52:33;;;;;;;2.80;0.80;;;20.60;69.70;;;;;;6252880;22;20023;-62
2023/10/16 08:55:14;;;;;;;3.50;0.90;;;20.60;69.70;;;;;;6306749;22;20030;-61
2023/10/16 08:57:40;;;;;;;3.25;0.90;;;20.60;69.70;;;;;;6306840;22;20019;-63
2023/10/16 09:00:14;;;;;;;5.85;1.45;;;20.60;69.70;;;;;;6252617;22;20015;-63
2023/10/16 09:02:40;;;;;;;4.10;1.02;;;20.60;69.60;;;;;;6255248;22;20462;-63
2023/10/16 09:05:08;;;;;;;4.95;0.88;;;20.60;69.50;;;;;;6279191;22;20015;-63
2023/10/16 09:07:36;;;;;;;4.93;0.80;;;20.60;69.40;;;;;;6278607;22;20065;-63
2023/10/16 09:10:02;;;;;;;2.85;0.93;;;20.60;69.40;;;;;;6279173;22;20443;-63
2023/10/16 09:12:27;;;;;;;4.63;0.80;;;20.60;69.40;;;;;;6277288;22;20065;-63
2023/10/16 09:14:54;;;;;;;3.40;0.88;;;20.60;69.40;;;;;;6252643;22;20023;-63
2023/10/16 09:17:23;;;;;;;3.95;0.90;;;20.60;69.40;;;;;;6253010;22;20011;-63
2023/10/16 09:19:50;;;;;;;4.88;0.90;;;20.60;69.40;;;;;;6305278;22;20336;-64
2023/10/16 09:22:17;;;;;;;4.25;1.15;;;20.60;69.50;;;;;;6280143;22;20022;-64
2023/10/16 09:24:45;;;;;;;3.83;1.20;;;20.60;69.50;;;;;;6308128;22;20325;-63
2023/10/16 09:27:18;;;;;;;4.80;0.93;;;20.60;69.50;;;;;;6279615;22;20019;-64
2023/10/16 09:29:53;;;;;;;3.83;1.00;;;20.60;69.50;;;;;;6256648;22;20039;-64
2023/10/16 09:32:25;;;;;;;4.30;1.02;;;20.60;69.60;;;;;;6307797;22;20381;-64
2023/10/16 09:34:58;;;;;;;3.88;0.95;;;20.60;69.60;;;;;;6280354;22;20027;-64
2023/10/16 09:37:34;;;;;;;2.10;0.90;;;20.60;69.60;;;;;;6280395;22;20432;-64
2023/10/16 09:43:05;;;;;;;3.08;1.00;;;20.60;69.60;;;;;;6308205;22;20038;-63
2023/10/16 09:45:34;;;;;;;3.35;0.93;;;20.60;69.70;;;;;;6307703;22;20462;-62
2023/10/16 09:48:07;;;;;;;5.22;0.80;;;20.60;69.70;;;;;;6280828;22;20019;-66
2023/10/16 09:50:33;;;;;;;3.72;0.85;;;20.50;69.60;;;;;;6256763;22;20084;-65
2023/10/16 09:53:01;;;;;;;4.90;1.10;;;20.50;69.60;;;;;;6280548;22;20019;-64
2023/10/16 09:55:27;;;;;;;4.60;1.10;;;20.50;69.60;;;;;;6254461;22;20011;-62
2023/10/16 09:57:56;;;;;;;3.75;0.82;;;20.50;69.60;;;;;;6229905;22;20026;-63
2023/10/16 10:02:57;;;;;;;5.35;0.90;;;20.50;69.70;;;;;;6279368;22;19919;-63
2023/10/16 10:05:31;;;;;;;4.95;1.00;;;20.50;69.70;;;;;;6307718;22;20039;-64
2023/10/16 10:07:59;;;;;;;6.03;1.00;;;20.50;69.80;;;;;;6232894;22;20015;-63
2023/10/16 10:13:15;;;;;;;5.30;1.10;;;20.50;69.90;;;;;;6177630;22;20088;-63
2023/10/16 10:15:47;;;;;;;3.35;1.10;;;20.50;69.90;;;;;;6280992;22;20030;-63
2023/10/16 10:18:32;;;;;;;5.80;0.90;;;20.50;70.00;;;;;;6230205;22;20015;-64
2023/10/16 10:20:58;;;;;;;6.18;1.33;;;20.50;70.00;;;;;;6307910;22;20019;-63
2023/10/16 10:23:24;;;;;;;1.73;0.70;;;20.50;70.10;;;;;;6279228;22;20513;-63
2023/10/16 10:25:53;;;;;;;4.07;0.90;;;20.50;70.10;;;;;;6307950;22;20034;-63
2023/10/16 10:28:29;;;;;;;5.97;1.25;;;20.50;70.20;;;;;;6229313;22;20086;-63
2023/10/16 10:30:56;;;;;;;2.80;0.70;;;20.50;70.10;;;;;;6279068;22;20011;-63
2023/10/16 10:33:57;;;;;;;2.67;0.70;;;20.40;70.00;;;;;;6307215;22;20101;-63
2023/10/16 10:36:43;;;;;;;2.92;0.98;;;20.50;70.00;;;;;;6255389;22;20020;-63
2023/10/16 10:39:21;;;;;;;3.75;0.88;;;20.40;70.00;;;;;;6279827;22;20334;-63
2023/10/16 10:41:51;;;;;;;;;;;20.50;70.00;;;;;;6308587;22;20023;-63
2023/10/16 10:44:19;;;;;;;2.65;0.93;;;20.50;69.90;;;;;;6306905;22;20406;-63
2023/10/16 10:46:53;;;;;;;2.42;0.75;;;20.50;70.00;;;;;;6280048;22;20015;-62
2023/10/16 10:49:33;;;;;;;2.15;0.70;;;20.50;69.90;;;;;;6307415;22;20023;-62
2023/10/16 10:52:07;;;;;;;5.30;0.80;;;20.40;69.90;;;;;;6279529;22;20015;-63
2023/10/16 10:54:42;;;;;;;5.00;0.93;;;20.40;69.80;;;;;;6280370;22;20027;-67
2023/10/16 10:57:18;;;;;;;5.25;0.80;;;20.40;69.70;;;;;;6306969;22;20027;-66
2023/10/16 11:00:21;;;;;;;7.47;1.20;;;20.50;69.60;;;;;;6279350;22;20018;-62
2023/10/16 11:05:30;;;;;;;4.70;0.85;;;20.40;69.70;;;;;;6306067;22;20015;-61
2023/10/16 11:10:41;;;;;;;2.55;0.68;;;20.40;69.80;;;;;;6307586;22;20027;-60
2023/10/16 11:13:08;;;;;;;4.45;0.80;;;20.40;69.80;;;;;;6278757;22;20011;-60
2023/10/16 11:15:34;;;;;;;3.55;0.93;;;20.40;69.90;;;;;;6279883;22;20324;-61
2023/10/16 11:18:09;;;;;;;3.90;0.70;;;20.40;70.00;;;;;;6307558;22;20013;-62
2023/10/16 11:20:38;;;;;;;1.88;0.70;;;20.40;69.90;;;;;;6278918;22;20019;-61
2023/10/16 11:23:12;;;;;;;3.38;0.73;;;20.40;70.00;;;;;;6307636;22;20047;-61
2023/10/16 11:25:46;;;;;;;2.70;0.88;;;20.40;70.00;;;;;;6307593;22;20046;-61
2023/10/16 11:28:20;;;;;;;5.15;1.02;;;20.40;70.10;;;;;;6278586;22;20461;-61
2023/10/16 11:30:49;;;;;;;4.82;1.00;;;20.40;70.10;;;;;;6306831;22;20094;-61
2023/10/16 11:33:34;;;;;;;5.88;0.85;;;20.40;70.10;;;;;;6305859;22;20026;-63
2023/10/16 11:36:03;;;;;;;7.32;1.02;;;20.40;70.10;;;;;;6279698;22;20023;-61
2023/10/16 11:38:32;;;;;;;3.65;0.90;;;20.40;70.20;;;;;;6279297;22;20019;-62
2023/10/16 11:41:04;;;;;;;3.63;0.68;;;20.40;70.20;;;;;;6278593;22;20057;-61
2023/10/16 11:43:31;;;;;;;5.32;1.02;;;20.40;70.20;;;;;;6279136;22;20011;-62
2023/10/16 11:45:56;;;;;;;5.90;0.90;;;20.40;70.20;;;;;;6253083;22;20042;-61
2023/10/16 11:48:35;;;;;;;5.32;1.05;;;20.40;70.20;;;;;;6276337;22;20410;-61
2023/10/16 11:51:15;;;;;;;4.72;0.70;;;20.40;70.20;;;;;;6279004;22;20015;-60
2023/10/16 11:53:40;;;;;;;5.88;0.98;;;20.40;70.20;;;;;;6282062;22;20019;-62
2023/10/16 11:56:08;;;;;;;4.68;0.70;;;20.40;70.20;;;;;;6277537;22;20043;-61
2023/10/16 11:58:34;;;;;;;6.60;1.03;;;20.40;70.10;;;;;;6304891;22;20030;-62
2023/10/16 12:01:09;;;;;;;5.25;0.90;;;20.40;70.20;;;;;;6278062;22;20023;-61
2023/10/16 12:03:37;;;;;;;3.03;0.77;;;20.40;70.30;;;;;;6279345;22;20023;-61
2023/10/16 12:06:12;;;;;;;3.25;0.88;;;20.40;70.20;;;;;;6279324;22;20011;-61
2023/10/16 12:08:40;;;;;;;4.43;0.95;;;20.40;70.20;;;;;;6305954;22;20015;-61
2023/10/16 12:11:07;;;;;;;4.53;0.80;;;20.40;70.20;;;;;;6277335;22;20019;-61
2023/10/16 12:13:32;;;;;;;3.95;1.20;;;20.40;70.20;;;;;;6279413;22;20080;-62
2023/10/16 12:15:58;;;;;;;3.78;1.00;;;20.40;70.20;;;;;;6278206;22;20098;-62
2023/10/16 12:18:26;;;;;;;8.15;1.20;;;20.40;70.20;;;;;;6228146;22;20023;-62
2023/10/16 12:20:53;;;;;;;2.83;1.00;;;20.40;70.20;;;;;;6279267;22;20022;-62
2023/10/16 12:23:20;;;;;;;4.18;0.98;;;20.40;70.20;;;;;;6278291;22;20023;-62
2023/10/16 12:25:46;;;;;;;3.03;1.00;;;20.40;70.30;;;;;;6279192;22;20007;-61
2023/10/16 12:28:12;;;;;;;4.95;0.82;;;20.40;70.30;;;;;;6306665;22;20058;-62
2023/10/16 12:30:37;;;;;;;2.97;1.00;;;20.40;70.30;;;;;;6278581;22;20015;-63
2023/10/16 12:33:07;;;;;;;5.65;1.10;;;20.40;70.30;;;;;;6279409;22;20386;-63
2023/10/16 12:35:34;;;;;;;4.93;1.33;;;20.40;70.30;;;;;;6279680;22;20026;-63
2023/10/16 12:38:07;;;;;;;3.60;1.08;;;20.40;70.30;;;;;;6252978;22;20011;-62
2023/10/16 12:40:37;;;;;;;4.78;1.27;;;20.40;70.30;;;;;;6306255;22;20111;-63
2023/10/16 12:43:05;;;;;;;3.85;1.20;;;20.40;70.30;;;;;;6279434;22;20025;-63
2023/10/16 12:45:32;;;;;;;7.75;1.35;;;20.40;70.30;;;;;;6305773;22;20086;-62
2023/10/16 12:47:57;;;;;;;6.13;1.10;;;20.40;70.30;;;;;;6278979;22;20016;-66
2023/10/16 12:50:23;;;;;;;4.60;1.23;;;20.40;70.30;;;;;;6278041;22;20069;-62
2023/10/16 12:52:56;;;;;;;5.30;1.08;;;20.40;70.30;;;;;;6306997;22;20076;-62
2023/10/16 12:55:24;;;;;;;9.20;1.50;;;20.40;70.20;;;;;;6306231;22;20439;-61
2023/10/16 12:57:53;;;;;;;5.75;1.00;;;20.40;70.10;;;;;;6306334;22;20026;-61
2023/10/16 13:00:20;;;;;;;3.15;0.90;;;20.40;69.90;;;;;;6279753;22;20090;-63
2023/10/16 13:02:47;;;;;;;4.38;0.95;;;20.40;69.90;;;;;;6306747;22;20332;-62
2023/10/16 13:05:13;;;;;;;6.10;1.58;;;20.40;69.90;;;;;;6306454;22;20015;-62
2023/10/16 13:07:48;;;;;;;3.95;0.80;;;20.40;70.00;;;;;;6308252;22;20069;-62
2023/10/16 13:10:14;;;;;;;6.78;1.20;;;20.40;69.90;;;;;;6307862;22;20023;-61
2023/10/16 13:12:43;;;;;;;4.20;1.10;;;20.40;69.90;;;;;;6307247;22;20021;-61
2023/10/16 13:15:15;;;;;;;2.95;0.80;;;20.40;70.00;;;;;;6308029;22;20055;-61
2023/10/16 13:17:48;;;;;;;3.35;1.13;;;20.30;69.90;;;;;;6280466;22;20018;-62
2023/10/16 13:20:19;;;;;;;4.28;1.00;;;20.40;70.00;;;;;;6279051;22;20016;-62
2023/10/16 13:22:49;;;;;;;4.07;1.05;;;20.30;69.90;;;;;;6308830;22;20083;-62
2023/10/16 13:25:16;;;;;;;4.40;1.00;;;20.30;69.80;;;;;;6280556;22;20007;-62
2023/10/16 13:27:43;;;;;;;2.13;0.85;;;20.30;69.80;;;;;;6279865;22;20024;-63
2023/10/16 13:30:11;;;;;;;5.27;1.00;;;20.40;70.00;;;;;;6280352;22;20026;-62
2023/10/16 13:32:41;;;;;;;3.67;1.03;;;20.30;70.00;;;;;;6307647;22;20041;-61
2023/10/16 13:35:12;;;;;;;4.15;0.98;;;20.30;70.00;;;;;;6280310;22;20098;-62
2023/10/16 13:37:39;;;;;;;3.55;0.80;;;20.30;70.00;;;;;;6280874;22;20019;-63
2023/10/16 13:40:15;;;;;;;3.27;0.80;;;20.30;70.10;;;;;;6279920;22;20034;-63
2023/10/16 13:42:41;;;;;;;3.08;0.90;;;20.40;70.20;;;;;;6280819;22;20257;-63
2023/10/16 13:45:12;;;;;;;4.03;0.90;;;20.30;70.20;;;;;;6280891;22;20136;-63
2023/10/16 13:47:42;;;;;;;5.50;1.05;;;20.40;70.20;;;;;;6279319;22;20022;-63
2023/10/16 13:50:12;;;;;;;3.38;0.80;;;20.40;70.20;;;;;;6280667;22;20319;-63
2023/10/16 13:52:38;;;;;;;2.05;1.02;;;20.40;70.30;;;;;;6280768;22;20012;-63
2023/10/16 13:55:12;;;;;;;2.35;0.82;;;20.40;70.30;;;;;;6279906;22;20470;-62
2023/10/16 13:57:44;;;;;;;4.47;0.90;;;20.40;70.30;;;;;;6308287;22;20019;-62
2023/10/16 14:00:28;;;;;;;3.50;0.93;;;20.40;70.30;;;;;;6307866;22;20019;-63
2023/10/16 14:02:55;;;;;;;3.17;0.77;;;20.40;70.30;;;;;;6279592;22;20012;-62
2023/10/16 14:05:21;;;;;;;2.43;0.73;;;20.40;70.30;;;;;;6308579;22;20011;-63
2023/10/16 14:07:46;;;;;;;3.55;0.80;;;20.40;70.30;;;;;;6279414;22;20397;-63
2023/10/16 14:10:13;;;;;;;2.20;0.70;;;20.40;70.30;;;;;;6280307;22;20549;-62
2023/10/16 14:12:41;;;;;;;2.13;0.73;;;20.40;70.30;;;;;;6308204;22;20021;-61
2023/10/16 14:15:15;;;;;;;4.68;0.85;;;20.40;70.30;;;;;;6307352;22;20011;-62
2023/10/16 14:17:43;;;;;;;1.27;0.60;;;20.40;70.30;;;;;;6280164;22;20046;-63
2023/10/16 14:20:12;;;;;;;2.85;0.73;;;20.40;70.30;;;;;;6280266;22;20513;-62
2023/10/16 14:22:47;;;;;;;2.80;0.73;;;20.40;70.30;;;;;;6279015;22;20019;-63
2023/10/16 14:25:13;;;;;;;2.53;0.73;;;20.40;70.40;;;;;;6280034;22;20037;-62
2023/10/16 14:27:39;;;;;;;3.05;0.70;;;20.40;70.40;;;;;;6280160;22;20435;-62
2023/10/16 14:30:06;;;;;;;2.55;1.00;;;20.40;70.40;;;;;;6279303;22;20019;-63
2023/10/16 14:32:34;;;;;;;2.60;0.73;;;20.40;70.50;;;;;;6279791;22;20093;-62
2023/10/16 14:35:00;;;;;;;2.38;0.80;;;20.40;70.40;;;;;;6280138;22;20023;-62
2023/10/16 14:37:26;;;;;;;3.47;0.70;;;20.40;70.50;;;;;;6279261;22;20076;-62
2023/10/16 14:39:56;;;;;;;2.80;0.75;;;20.40;70.50;;;;;;6279599;22;20088;-62
2023/10/16 14:42:22;;;;;;;3.22;0.80;;;20.40;70.50;;;;;;6279806;22;20023;-62
2023/10/16 14:44:48;;;;;;;2.22;0.73;;;20.40;70.50;;;;;;6279100;22;20044;-62
2023/10/16 14:47:15;;;;;;;1.83;0.80;;;20.40;70.50;;;;;;6279722;22;20019;-62
2023/10/16 14:49:41;;;;;;;3.08;0.68;;;20.40;70.50;;;;;;6280097;22;20042;-61
2023/10/16 14:52:07;;;;;;;3.28;0.80;;;20.40;70.50;;;;;;6306445;22;20073;-64
2023/10/16 14:54:32;;;;;;;3.00;0.63;;;20.40;70.50;;;;;;6280253;22;20023;-63
2023/10/16 14:56:59;;;;;;;3.65;0.70;;;20.40;70.40;;;;;;6304453;22;20098;-64
2023/10/16 14:59:30;;;;;;;3.53;0.77;;;20.40;70.40;;;;;;6279949;22;20064;-64
2023/10/16 15:01:58;;;;;;;4.43;0.70;;;20.40;70.40;;;;;;6307377;22;20015;-63
2023/10/16 15:04:26;;;;;;;2.60;0.60;;;20.40;70.40;;;;;;6306074;22;20348;-63
2023/10/16 15:06:52;;;;;;;2.25;0.80;;;20.40;70.40;;;;;;6307507;22;20073;-64
2023/10/16 15:09:18;;;;;;;2.35;0.85;;;20.40;70.40;;;;;;6307156;22;20019;-64